Time;durP1;ratioP1;P1;durP2;ratioP2;P2;SDS_P1;SDS_P2;PMS_P1;PMS_P2;Temp;Humidity;BMP_temperature;BMP_pressure;BME280_temperature;BME280_humidity;BME280_pressure;Samples;Min_cycle;Max_cycle;Signal;HPM_P1;HPM_P2
2021/08/03 00:00:37;;;;;;;58.53;2.87;;;13.20;67.50;;;;;;5113262;28;20544;-75
2021/08/03 00:03:08;;;;;;;58.27;2.87;;;13.10;67.50;;;;;;5113329;28;20544;-76
2021/08/03 00:05:39;;;;;;;58.27;3.00;;;13.10;68.10;;;;;;5113981;28;20524;-75
2021/08/03 00:08:15;;;;;;;58.17;2.70;;;13.10;69.00;;;;;;5114085;28;20485;-75
2021/08/03 00:10:43;;;;;;;58.27;2.80;;;13.20;69.90;;;;;;5113619;28;20501;-76
2021/08/03 00:13:10;;;;;;;58.50;2.80;;;13.20;70.30;;;;;;5113529;28;20446;-75
2021/08/03 00:15:38;;;;;;;58.27;2.70;;;13.10;71.50;;;;;;5113257;28;20879;-75
2021/08/03 00:18:06;;;;;;;58.37;2.77;;;13.20;72.70;;;;;;5113503;28;20489;-76
2021/08/03 00:20:36;;;;;;;58.17;2.60;;;13.20;73.40;;;;;;5113209;28;20549;-76
2021/08/03 00:23:03;;;;;;;58.27;2.60;;;13.20;73.10;;;;;;5113387;28;20453;-76
2021/08/03 00:25:30;;;;;;;58.33;2.63;;;13.20;73.00;;;;;;5113640;28;20452;-75
2021/08/03 00:27:57;;;;;;;58.37;2.70;;;13.20;73.10;;;;;;5102876;28;20573;-75
2021/08/03 00:30:25;;;;;;;58.33;2.70;;;13.20;73.60;;;;;;5092658;28;20507;-75
2021/08/03 00:32:53;;;;;;;58.27;2.70;;;13.20;74.50;;;;;;5092915;28;20487;-75
2021/08/03 00:35:22;;;;;;;58.57;2.87;;;13.20;74.10;;;;;;5092390;28;20486;-75
2021/08/03 00:37:49;;;;;;;58.47;2.73;;;13.20;73.20;;;;;;5093041;28;20525;-76
2021/08/03 00:40:18;;;;;;;58.77;3.07;;;13.10;72.70;;;;;;5092415;28;20470;-75
2021/08/03 00:42:45;;;;;;;58.27;2.63;;;13.10;72.60;;;;;;5092466;28;20480;-75
2021/08/03 00:45:12;;;;;;;59.10;3.47;;;13.10;72.50;;;;;;5092946;28;20451;-75
2021/08/03 00:47:39;;;;;;;58.40;2.90;;;13.10;72.70;;;;;;5092856;28;20488;-75
2021/08/03 00:50:07;;;;;;;58.23;2.70;;;13.00;73.10;;;;;;5092247;28;20982;-75
2021/08/03 00:52:36;;;;;;;58.07;2.77;;;13.00;72.90;;;;;;5092538;28;20453;-75
2021/08/03 00:55:03;;;;;;;58.40;2.70;;;13.00;73.40;;;;;;5091876;28;20453;-75
2021/08/03 00:57:32;;;;;;;58.30;2.70;;;13.00;74.60;;;;;;5091915;28;20447;-75
2021/08/03 00:59:59;;;;;;;58.20;2.70;;;13.00;76.00;;;;;;5091092;28;20450;-75
2021/08/03 01:02:26;;;;;;;58.27;2.60;;;13.00;77.10;;;;;;5092518;28;20537;-75
2021/08/03 01:04:53;;;;;;;58.27;2.80;;;13.00;77.70;;;;;;5092493;28;20818;-75
2021/08/03 01:07:32;;;;;;;58.50;2.70;;;13.00;78.00;;;;;;5092345;28;20452;-75
2021/08/03 01:10:12;;;;;;;58.50;2.70;;;13.00;78.50;;;;;;5091991;28;21886;-75
2021/08/03 01:12:49;;;;;;;58.27;2.60;;;13.00;79.30;;;;;;5092538;28;20537;-75
2021/08/03 01:15:18;;;;;;;58.90;2.90;;;13.00;79.90;;;;;;5092448;28;20446;-75
2021/08/03 01:17:49;;;;;;;57.97;2.60;;;13.00;80.70;;;;;;5092544;28;20450;-75
2021/08/03 01:20:25;;;;;;;58.30;2.70;;;13.00;81.20;;;;;;5091873;28;20474;-75
2021/08/03 01:23:09;;;;;;;58.17;2.50;;;13.10;82.90;;;;;;5092337;28;20450;-75
2021/08/03 01:25:46;;;;;;;58.40;2.63;;;13.10;84.30;;;;;;5092385;28;20541;-75
2021/08/03 01:28:18;;;;;;;58.03;2.43;;;13.20;85.80;;;;;;5092150;28;20561;-75
2021/08/03 01:30:50;;;;;;;58.17;2.40;;;13.30;86.20;;;;;;5092040;28;20516;-75
2021/08/03 01:33:21;;;;;;;58.23;2.50;;;13.30;86.70;;;;;;5092364;28;20536;-75
2021/08/03 01:35:50;;;;;;;58.03;2.60;;;13.40;87.30;;;;;;5091960;28;20462;-75
2021/08/03 01:38:21;;;;;;;58.20;2.60;;;13.30;87.00;;;;;;5091971;28;20541;-76
2021/08/03 01:40:50;;;;;;;58.10;2.43;;;13.40;86.50;;;;;;5091630;28;20462;-75
2021/08/03 01:43:18;;;;;;;58.27;2.90;;;13.30;86.10;;;;;;5092130;28;20442;-75
2021/08/03 01:45:48;;;;;;;58.07;2.60;;;13.40;86.50;;;;;;5090397;28;21017;-75
2021/08/03 01:48:16;;;;;;;58.07;2.50;;;13.40;86.80;;;;;;5091899;28;20582;-75
2021/08/03 01:50:45;;;;;;;57.80;2.50;;;13.40;86.60;;;;;;5091558;28;20851;-76
2021/08/03 01:53:12;;;;;;;58.07;2.50;;;13.40;86.40;;;;;;5091739;28;20538;-75
2021/08/03 01:55:40;;;;;;;57.97;2.50;;;13.40;84.60;;;;;;5091769;28;20445;-75
2021/08/03 01:58:07;;;;;;;58.10;2.50;;;13.40;82.40;;;;;;5092020;28;20538;-76
2021/08/03 02:00:35;;;;;;;58.10;2.50;;;13.30;81.00;;;;;;5091530;28;21032;-75
2021/08/03 02:03:02;;;;;;;57.97;2.43;;;13.30;80.90;;;;;;5091626;28;20537;-75
2021/08/03 02:05:30;;;;;;;58.10;2.40;;;13.30;80.80;;;;;;5092047;28;20521;-76
2021/08/03 02:07:57;;;;;;;58.07;2.80;;;13.30;80.70;;;;;;5091832;28;20570;-75
2021/08/03 02:10:24;;;;;;;58.30;2.40;;;13.20;79.70;;;;;;5094898;28;20561;-76
2021/08/03 02:12:51;;;;;;;58.17;2.80;;;13.20;79.50;;;;;;5095838;28;20542;-76
2021/08/03 02:15:18;;;;;;;58.30;2.73;;;13.20;79.00;;;;;;5095911;28;20481;-75
2021/08/03 02:17:46;;;;;;;57.87;2.47;;;13.10;78.60;;;;;;5095695;28;20526;-75
2021/08/03 02:20:13;;;;;;;58.17;2.60;;;13.10;78.40;;;;;;5095255;28;20474;-75
2021/08/03 02:22:40;;;;;;;57.97;2.50;;;13.10;78.20;;;;;;5095547;28;20968;-75
2021/08/03 02:25:10;;;;;;;58.00;2.50;;;13.10;78.20;;;;;;5095766;28;20452;-75
2021/08/03 02:27:38;;;;;;;58.30;2.50;;;13.10;77.80;;;;;;5095464;28;20450;-75
2021/08/03 02:30:06;;;;;;;58.50;2.90;;;13.00;77.10;;;;;;5095016;28;20473;-75
2021/08/03 02:32:39;;;;;;;58.20;2.70;;;13.00;76.80;;;;;;5095645;28;20532;-75
2021/08/03 02:35:10;;;;;;;58.00;2.50;;;13.00;76.80;;;;;;5095591;28;20549;-75
2021/08/03 02:37:39;;;;;;;58.40;2.70;;;13.00;76.40;;;;;;5095424;28;20520;-75
2021/08/03 02:40:09;;;;;;;58.80;2.60;;;13.00;76.50;;;;;;5094939;28;20550;-76
2021/08/03 02:42:38;;;;;;;58.13;2.40;;;12.90;76.20;;;;;;5095154;28;20537;-75
2021/08/03 02:45:06;;;;;;;58.17;2.50;;;12.90;76.30;;;;;;5095373;28;20542;-75
2021/08/03 02:47:43;;;;;;;58.03;2.60;;;13.00;76.70;;;;;;5095102;28;20478;-75
2021/08/03 02:50:12;;;;;;;58.17;2.60;;;12.90;76.50;;;;;;5094716;28;20905;-75
2021/08/03 02:52:42;;;;;;;58.43;2.70;;;12.90;77.00;;;;;;5094955;28;20989;-75
2021/08/03 02:55:15;;;;;;;58.10;2.50;;;12.90;77.30;;;;;;5094890;28;20538;-75
2021/08/03 02:57:46;;;;;;;58.30;2.50;;;12.90;77.30;;;;;;5095189;28;20456;-75
2021/08/03 03:00:14;;;;;;;58.13;2.60;;;12.90;77.30;;;;;;5094641;28;20985;-75
2021/08/03 03:02:44;;;;;;;58.17;2.50;;;12.90;77.60;;;;;;5094851;28;20528;-76
2021/08/03 03:05:16;;;;;;;58.37;2.80;;;12.90;77.80;;;;;;5094898;28;20434;-75
2021/08/03 03:07:48;;;;;;;58.13;2.60;;;12.80;78.30;;;;;;5094588;28;20951;-75
2021/08/03 03:10:19;;;;;;;58.00;2.50;;;12.90;78.60;;;;;;5094358;28;20470;-75
2021/08/03 03:13:00;;;;;;;58.07;2.60;;;12.80;78.40;;;;;;5094700;28;20460;-75
2021/08/03 03:15:30;;;;;;;58.17;2.60;;;12.80;78.40;;;;;;5094649;28;20450;-76
2021/08/03 03:17:57;;;;;;;58.23;2.80;;;12.80;79.60;;;;;;5094473;28;20439;-75
2021/08/03 03:20:26;;;;;;;58.07;2.67;;;12.80;79.60;;;;;;5093660;28;20472;-75
2021/08/03 03:22:56;;;;;;;58.27;2.60;;;12.80;79.40;;;;;;5094557;28;20863;-75
2021/08/03 03:25:27;;;;;;;58.23;2.90;;;12.80;79.50;;;;;;5094880;28;20449;-75
2021/08/03 03:27:57;;;;;;;58.17;2.70;;;12.80;79.30;;;;;;5094799;28;20533;-76
2021/08/03 03:30:25;;;;;;;58.33;2.60;;;12.90;80.40;;;;;;5093997;28;21056;-75
2021/08/03 03:32:52;;;;;;;58.17;2.50;;;12.90;80.90;;;;;;5094124;28;20541;-75
2021/08/03 03:35:22;;;;;;;58.07;2.50;;;12.90;81.20;;;;;;5094361;28;20462;-75
2021/08/03 03:37:52;;;;;;;58.37;2.70;;;12.90;81.30;;;;;;5094297;28;20824;-75
2021/08/03 03:40:21;;;;;;;58.13;2.60;;;13.00;81.40;;;;;;5093926;28;20839;-75
2021/08/03 03:42:49;;;;;;;58.20;2.57;;;13.00;80.90;;;;;;5094078;28;20536;-75
2021/08/03 03:45:17;;;;;;;58.07;2.50;;;12.90;80.60;;;;;;5094024;28;20469;-75
2021/08/03 03:47:53;;;;;;;58.10;2.80;;;12.90;80.50;;;;;;5093777;28;20446;-75
2021/08/03 03:50:27;;;;;;;58.13;2.50;;;12.90;79.90;;;;;;5093305;28;20461;-75
2021/08/03 03:53:01;;;;;;;58.20;2.60;;;12.90;79.40;;;;;;5093964;28;20793;-75
2021/08/03 03:55:29;;;;;;;58.07;2.70;;;12.90;79.40;;;;;;5093878;28;20441;-76
2021/08/03 03:57:56;;;;;;;58.07;2.60;;;12.90;78.90;;;;;;5093838;28;20951;-75
2021/08/03 04:00:23;;;;;;;58.27;2.80;;;12.90;78.20;;;;;;5093180;28;20462;-75
2021/08/03 04:02:52;;;;;;;58.07;2.60;;;12.90;77.90;;;;;;5093752;28;20438;-76
2021/08/03 04:05:19;;;;;;;57.97;2.60;;;12.80;77.20;;;;;;5093221;28;20819;-76
2021/08/03 04:07:50;;;;;;;58.30;2.60;;;12.80;77.00;;;;;;5093576;28;20545;-75
2021/08/03 04:10:30;;;;;;;58.57;3.30;;;12.80;77.00;;;;;;5093000;28;20486;-75
2021/08/03 04:12:58;;;;;;;58.27;2.53;;;12.80;77.30;;;;;;5093526;28;20961;-76
2021/08/03 04:15:25;;;;;;;58.27;2.50;;;12.80;76.70;;;;;;5093493;28;20552;-76
2021/08/03 04:17:51;;;;;;;58.33;2.50;;;12.80;76.00;;;;;;5093371;28;20966;-75
2021/08/03 04:20:18;;;;;;;59.13;3.43;;;12.80;76.40;;;;;;5092637;28;20562;-75
2021/08/03 04:22:45;;;;;;;58.17;2.70;;;12.80;77.30;;;;;;5093180;28;20477;-75
2021/08/03 04:25:12;;;;;;;58.27;2.40;;;12.80;78.00;;;;;;5092976;28;20451;-75
2021/08/03 04:27:40;;;;;;;58.20;2.40;;;12.80;78.10;;;;;;5093256;28;20446;-75
2021/08/03 04:30:10;;;;;;;58.13;2.50;;;12.90;78.00;;;;;;5092579;28;20492;-75
2021/08/03 04:32:36;;;;;;;58.57;3.70;;;12.80;77.70;;;;;;5092961;28;20497;-75
2021/08/03 04:35:04;;;;;;;58.07;2.70;;;12.80;77.50;;;;;;5092036;28;20541;-76
2021/08/03 04:37:37;;;;;;;58.03;2.63;;;12.80;76.90;;;;;;5093054;28;20501;-75
2021/08/03 04:40:05;;;;;;;58.27;3.10;;;12.80;77.20;;;;;;5092823;28;20841;-75
2021/08/03 04:42:31;;;;;;;59.00;3.20;;;12.80;77.10;;;;;;5092741;28;20482;-76
2021/08/03 04:45:00;;;;;;;57.87;2.60;;;12.80;76.90;;;;;;5092736;28;20486;-75
2021/08/03 04:47:27;;;;;;;58.23;2.60;;;12.80;76.50;;;;;;5092633;28;20973;-74
2021/08/03 04:49:53;;;;;;;57.87;2.60;;;12.80;76.40;;;;;;5092056;28;20482;-75
2021/08/03 04:52:20;;;;;;;58.30;2.60;;;12.90;77.00;;;;;;5093122;28;20452;-75
2021/08/03 04:54:47;;;;;;;58.17;2.90;;;12.80;77.00;;;;;;5092930;28;20450;-75
2021/08/03 04:57:14;;;;;;;57.93;2.50;;;12.90;77.40;;;;;;5092413;28;20529;-75
2021/08/03 04:59:41;;;;;;;58.17;2.90;;;12.90;77.90;;;;;;5092321;28;20858;-75
2021/08/03 05:02:09;;;;;;;58.17;2.57;;;13.00;78.30;;;;;;5092310;28;20533;-74
2021/08/03 05:04:36;;;;;;;58.23;3.00;;;13.00;79.00;;;;;;5092602;28;20470;-75
2021/08/03 05:07:03;;;;;;;58.07;2.53;;;13.10;79.40;;;;;;5092427;28;20442;-75
2021/08/03 05:09:30;;;;;;;57.97;2.50;;;13.10;78.20;;;;;;5092328;28;20726;-75
2021/08/03 05:11:57;;;;;;;58.27;3.00;;;13.10;77.30;;;;;;5092242;28;20549;-75
2021/08/03 05:14:24;;;;;;;57.93;2.60;;;13.20;76.10;;;;;;5092893;28;20874;-75
2021/08/03 05:16:51;;;;;;;58.30;2.60;;;13.20;75.80;;;;;;5092549;28;20478;-75
2021/08/03 05:19:19;;;;;;;58.00;2.60;;;13.20;75.30;;;;;;5091893;28;20450;-75
2021/08/03 05:21:46;;;;;;;57.97;2.70;;;13.30;74.90;;;;;;5092416;28;20498;-75
2021/08/03 05:24:13;;;;;;;58.30;2.60;;;13.30;73.70;;;;;;5092196;28;20455;-75
2021/08/03 05:26:40;;;;;;;58.23;2.60;;;13.30;73.10;;;;;;5092195;28;20460;-75
2021/08/03 05:29:07;;;;;;;58.23;2.57;;;13.40;71.80;;;;;;5091739;28;20483;-76
2021/08/03 05:31:33;;;;;;;58.30;2.60;;;13.40;70.70;;;;;;5092001;28;20498;-75
2021/08/03 05:34:01;;;;;;;58.13;2.70;;;13.40;70.00;;;;;;5091950;28;20485;-75
2021/08/03 05:36:29;;;;;;;58.03;2.77;;;13.50;69.60;;;;;;5091982;28;20872;-75
2021/08/03 05:38:56;;;;;;;58.20;2.50;;;13.50;70.10;;;;;;5092092;28;20478;-75
2021/08/03 05:41:23;;;;;;;58.30;3.00;;;13.60;69.10;;;;;;5091498;28;20545;-75
2021/08/03 05:43:50;;;;;;;58.27;2.60;;;13.70;68.40;;;;;;5091486;28;20535;-74
2021/08/03 05:46:17;;;;;;;58.27;2.70;;;13.70;68.10;;;;;;5091947;28;20453;-75
2021/08/03 05:48:44;;;;;;;58.07;2.40;;;13.70;65.60;;;;;;5091792;28;20504;-75
2021/08/03 05:51:11;;;;;;;57.97;2.40;;;13.70;63.50;;;;;;5091455;28;20502;-74
2021/08/03 05:53:39;;;;;;;58.17;2.77;;;13.70;61.30;;;;;;5091672;28;20525;-75
2021/08/03 05:56:07;;;;;;;57.87;2.50;;;13.70;59.50;;;;;;5091839;28;20536;-75
2021/08/03 05:58:33;;;;;;;58.20;2.60;;;13.80;59.20;;;;;;5091672;28;20441;-75
2021/08/03 06:01:01;;;;;;;58.10;2.50;;;13.80;56.40;;;;;;5091447;28;20481;-74
2021/08/03 06:03:28;;;;;;;58.30;2.50;;;13.90;53.50;;;;;;5091844;28;20883;-75
2021/08/03 06:05:54;;;;;;;58.10;2.80;;;13.90;46.20;;;;;;5091770;28;21000;-74
2021/08/03 06:08:24;;;;;;;58.13;2.67;;;13.90;43.70;;;;;;5092064;28;20446;-74
2021/08/03 06:10:54;;;;;;;58.27;2.80;;;13.90;43.30;;;;;;5091183;28;20483;-74
2021/08/03 06:13:23;;;;;;;58.20;2.60;;;14.00;43.20;;;;;;5091894;28;20447;-74
2021/08/03 06:15:51;;;;;;;58.23;2.57;;;14.00;43.20;;;;;;5091593;28;20462;-75
2021/08/03 06:18:25;;;;;;;58.20;2.50;;;14.10;40.80;;;;;;5091589;28;20446;-75
2021/08/03 06:20:52;;;;;;;58.20;2.47;;;14.20;36.10;;;;;;5091417;28;20472;-74
2021/08/03 06:23:20;;;;;;;58.20;2.90;;;14.30;29.70;;;;;;5091717;28;20446;-74
2021/08/03 06:25:48;;;;;;;58.10;2.50;;;14.40;24.30;;;;;;5091835;28;20533;-74
2021/08/03 06:28:17;;;;;;;57.97;2.43;;;14.40;20.90;;;;;;5091875;28;20538;-75
2021/08/03 06:30:48;;;;;;;58.03;2.50;;;14.50;16.10;;;;;;5091215;28;20912;-74
2021/08/03 06:33:17;;;;;;;57.87;2.47;;;14.50;7.30;;;;;;5091186;28;20444;-75
2021/08/03 06:35:44;;;;;;;58.17;2.87;;;14.50;1.00;;;;;;5091360;28;20459;-75
2021/08/03 06:38:11;;;;;;;58.13;2.50;;;14.50;1.00;;;;;;5091418;28;20538;-75
2021/08/03 06:40:46;;;;;;;58.13;2.63;;;14.50;1.00;;;;;;5090928;28;20473;-74
2021/08/03 06:43:21;;;;;;;58.40;3.23;;;14.60;1.00;;;;;;5091503;28;20459;-74
2021/08/03 06:45:49;;;;;;;57.97;2.33;;;14.70;1.00;;;;;;5091447;28;20452;-74
2021/08/03 06:48:24;;;;;;;58.00;2.30;;;14.70;1.00;;;;;;5091329;28;20450;-74
2021/08/03 06:50:56;;;;;;;57.93;2.50;;;14.90;1.00;;;;;;5091115;28;20746;-74
2021/08/03 06:53:27;;;;;;;58.20;2.60;;;15.10;1.00;;;;;;5091559;28;20904;-75
2021/08/03 06:55:56;;;;;;;57.83;2.57;;;15.20;1.00;;;;;;5092294;28;20447;-75
2021/08/03 06:58:32;;;;;;;58.03;2.60;;;15.30;1.00;;;;;;5095052;28;20447;-75
2021/08/03 07:01:02;;;;;;;58.10;2.60;;;15.50;1.00;;;;;;5094453;28;20459;-74
2021/08/03 07:03:34;;;;;;;57.93;2.47;;;15.60;1.00;;;;;;5095037;28;20538;-74
2021/08/03 07:06:01;;;;;;;57.97;2.40;;;15.80;1.00;;;;;;5094937;28;20445;-74
2021/08/03 07:08:32;;;;;;;58.07;2.43;;;16.00;1.00;;;;;;5094827;28;20455;-75
2021/08/03 07:11:00;;;;;;;58.30;2.50;;;16.20;1.00;;;;;;5094234;28;20492;-74
2021/08/03 07:13:30;;;;;;;57.57;2.50;;;16.20;1.00;;;;;;5094653;28;20813;-74
2021/08/03 07:15:58;;;;;;;58.03;2.70;;;16.30;1.00;;;;;;5094923;28;20455;-74
2021/08/03 07:18:26;;;;;;;57.57;2.40;;;16.30;1.00;;;;;;5094657;28;20825;-74
2021/08/03 07:20:55;;;;;;;57.60;2.40;;;16.30;1.00;;;;;;5094252;28;20557;-74
2021/08/03 07:23:22;;;;;;;58.00;2.50;;;16.30;1.00;;;;;;5094465;28;20460;-75
2021/08/03 07:25:51;;;;;;;57.77;2.40;;;16.30;1.00;;;;;;5094364;28;20540;-74
2021/08/03 07:28:18;;;;;;;58.00;2.50;;;16.40;1.00;;;;;;5094631;28;20444;-75
2021/08/03 07:30:46;;;;;;;57.97;2.70;;;16.50;1.00;;;;;;5093999;28;20499;-74
2021/08/03 07:33:13;;;;;;;58.00;2.40;;;16.60;1.00;;;;;;5094340;28;20893;-74
2021/08/03 07:35:41;;;;;;;58.47;2.80;;;16.80;1.00;;;;;;5094144;28;20454;-75
2021/08/03 07:38:09;;;;;;;58.00;2.40;;;16.90;1.00;;;;;;5094193;28;20453;-75
2021/08/03 07:40:36;;;;;;;57.87;2.50;;;17.10;1.00;;;;;;5093679;28;20501;-75
2021/08/03 07:43:04;;;;;;;57.90;2.40;;;17.20;1.00;;;;;;5094020;28;20454;-74
2021/08/03 07:45:31;;;;;;;58.10;2.40;;;17.40;1.00;;;;;;5094048;28;21018;-75
2021/08/03 07:47:59;;;;;;;57.83;2.30;;;17.50;1.00;;;;;;5094024;28;20887;-74
2021/08/03 07:50:27;;;;;;;57.57;2.30;;;17.60;1.00;;;;;;5093732;28;20580;-74
2021/08/03 07:52:54;;;;;;;57.57;2.30;;;17.80;1.00;;;;;;5093836;28;20897;-74
2021/08/03 07:55:21;;;;;;;58.60;2.93;;;17.90;1.00;;;;;;5093775;28;20458;-75
2021/08/03 07:57:48;;;;;;;57.27;2.20;;;18.10;1.00;;;;;;5094028;28;20451;-74
2021/08/03 08:00:15;;;;;;;58.20;2.20;;;18.10;1.00;;;;;;5093515;28;20549;-74
2021/08/03 08:02:42;;;;;;;57.63;2.40;;;18.20;1.00;;;;;;5093638;28;20454;-74
2021/08/03 08:05:11;;;;;;;57.67;2.27;;;18.30;1.00;;;;;;5093736;28;20442;-74
2021/08/03 08:07:38;;;;;;;57.77;2.30;;;18.40;1.00;;;;;;5093192;28;20507;-74
2021/08/03 08:10:05;;;;;;;57.73;2.30;;;18.40;1.00;;;;;;5093205;28;21018;-75
2021/08/03 08:12:32;;;;;;;57.47;2.50;;;18.50;1.00;;;;;;5093667;28;20442;-75
2021/08/03 08:14:59;;;;;;;57.63;2.20;;;18.70;1.00;;;;;;5093543;28;20533;-75
2021/08/03 08:17:26;;;;;;;58.00;2.60;;;18.80;1.00;;;;;;5093426;28;20537;-74
2021/08/03 08:19:53;;;;;;;58.00;2.40;;;19.00;1.00;;;;;;5093066;28;20439;-74
2021/08/03 08:22:21;;;;;;;57.57;2.37;;;19.10;1.00;;;;;;5093133;28;20463;-75
2021/08/03 08:24:48;;;;;;;57.83;2.20;;;19.20;1.00;;;;;;5093463;28;20534;-75
2021/08/03 08:27:15;;;;;;;58.10;2.17;;;19.20;1.00;;;;;;5093279;28;20808;-72
2021/08/03 08:29:42;;;;;;;57.97;2.70;;;19.20;1.00;;;;;;5092817;28;20528;-76
2021/08/03 08:32:10;;;;;;;57.70;2.70;;;19.20;1.00;;;;;;5093100;28;20533;-74
2021/08/03 08:34:37;;;;;;;57.90;2.30;;;19.20;1.00;;;;;;5093062;28;20500;-74
2021/08/03 08:37:04;;;;;;;57.67;2.23;;;19.20;1.00;;;;;;5092989;28;20551;-74
2021/08/03 08:39:32;;;;;;;58.07;3.00;;;19.30;1.00;;;;;;5092923;28;20483;-73
2021/08/03 08:41:59;;;;;;;57.40;2.30;;;19.40;1.00;;;;;;5093020;28;20545;-73
2021/08/03 08:44:26;;;;;;;57.50;2.10;;;19.40;1.00;;;;;;5092984;28;20442;-73
2021/08/03 08:46:56;;;;;;;57.67;2.30;;;19.50;1.00;;;;;;5092911;28;20842;-73
2021/08/03 08:49:24;;;;;;;57.63;2.20;;;19.60;1.00;;;;;;5092491;28;20498;-73
2021/08/03 08:51:52;;;;;;;57.77;2.30;;;19.70;1.00;;;;;;5092843;28;20914;-73
2021/08/03 08:54:19;;;;;;;57.97;2.30;;;19.90;1.00;;;;;;5092881;28;20455;-73
2021/08/03 08:56:47;;;;;;;57.67;2.30;;;20.00;1.00;;;;;;5092814;28;20539;-73
2021/08/03 08:59:14;;;;;;;57.57;2.10;;;20.10;1.00;;;;;;5092345;28;20544;-73
2021/08/03 09:01:41;;;;;;;57.30;2.20;;;20.10;1.00;;;;;;5092434;28;20559;-74
2021/08/03 09:04:08;;;;;;;57.97;2.23;;;20.20;1.00;;;;;;5092775;28;20485;-73
2021/08/03 09:06:35;;;;;;;57.37;2.20;;;20.30;1.00;;;;;;5092716;28;20454;-74
2021/08/03 09:09:14;;;;;;;57.73;2.53;;;20.40;1.00;;;;;;5092696;28;20453;-73
2021/08/03 09:11:47;;;;;;;58.00;2.50;;;20.60;1.00;;;;;;5092331;28;20929;-74
2021/08/03 09:14:14;;;;;;;60.10;2.83;;;20.90;1.00;;;;;;5092256;28;20536;-73
2021/08/03 09:16:46;;;;;;;57.57;2.10;;;21.20;1.00;;;;;;5092628;28;20457;-74
2021/08/03 09:19:28;;;;;;;57.63;2.27;;;21.30;1.00;;;;;;5091504;28;20457;-73
2021/08/03 09:22:14;;;;;;;57.67;2.23;;;21.30;1.00;;;;;;5092134;28;20469;-73
2021/08/03 09:24:42;;;;;;;58.13;2.40;;;21.30;1.00;;;;;;5092193;28;20486;-73
2021/08/03 09:27:31;;;;;;;57.97;2.83;;;21.30;1.00;;;;;;5092366;28;20446;-74
2021/08/03 09:29:58;;;;;;;57.93;2.23;;;21.30;1.00;;;;;;5091761;28;20456;-73
2021/08/03 09:32:30;;;;;;;58.40;2.57;;;21.40;1.00;;;;;;5092105;28;20537;-73
2021/08/03 09:35:11;;;;;;;58.00;2.20;;;21.40;1.00;;;;;;5092011;28;20463;-74
2021/08/03 09:37:39;;;;;;;57.73;2.30;;;21.40;1.00;;;;;;5092153;28;20545;-73
2021/08/03 09:40:18;;;;;;;57.87;2.50;;;21.40;1.00;;;;;;5091688;28;20466;-73
2021/08/03 09:42:56;;;;;;;57.60;2.47;;;21.30;1.00;;;;;;5092052;28;20449;-73
2021/08/03 09:45:23;;;;;;;57.97;2.60;;;21.10;1.00;;;;;;5092527;28;20461;-74
2021/08/03 09:47:50;;;;;;;57.70;2.30;;;20.80;1.00;;;;;;5092054;28;20477;-75
2021/08/03 09:50:19;;;;;;;57.97;2.20;;;20.20;1.00;;;;;;5091807;28;20496;-75
2021/08/03 09:52:47;;;;;;;58.20;2.30;;;19.60;1.00;;;;;;5092026;28;20946;-76
2021/08/03 09:55:16;;;;;;;58.60;2.63;;;18.90;1.00;;;;;;5091913;28;20449;-75
2021/08/03 09:57:44;;;;;;;57.97;2.47;;;18.30;1.00;;;;;;5091765;28;20442;-74
2021/08/03 10:00:34;;;;;;;58.50;2.70;;;17.80;1.00;;;;;;5091311;28;20978;-74
2021/08/03 10:03:02;;;;;;;57.77;2.30;;;17.30;1.00;;;;;;5091842;28;20472;-74
2021/08/03 10:05:29;;;;;;;58.07;2.60;;;17.00;1.00;;;;;;5091925;28;20831;-74
2021/08/03 10:07:57;;;;;;;58.17;2.40;;;16.90;1.00;;;;;;5091727;28;20968;-73
2021/08/03 10:10:24;;;;;;;58.10;2.30;;;16.80;1.00;;;;;;5091298;28;20492;-73
2021/08/03 10:12:51;;;;;;;58.13;2.47;;;16.70;1.00;;;;;;5091766;28;20893;-74
2021/08/03 10:15:18;;;;;;;58.17;2.50;;;16.70;1.00;;;;;;5091951;28;20552;-74
2021/08/03 10:17:46;;;;;;;58.20;2.50;;;16.80;1.00;;;;;;5091813;28;20481;-74
2021/08/03 10:20:14;;;;;;;57.97;2.33;;;16.80;1.00;;;;;;5091296;28;20508;-73
2021/08/03 10:22:46;;;;;;;57.67;2.37;;;16.70;1.00;;;;;;5091463;28;20456;-73
2021/08/03 10:25:15;;;;;;;57.80;2.30;;;16.70;1.00;;;;;;5091548;28;20536;-73
2021/08/03 10:27:44;;;;;;;58.27;2.40;;;16.70;1.00;;;;;;5091932;28;20548;-74
2021/08/03 10:30:38;;;;;;;58.13;2.40;;;16.80;1.00;;;;;;5092444;28;21030;-74
2021/08/03 10:33:10;;;;;;;58.03;2.43;;;16.90;1.00;;;;;;5095679;28;20460;-74
2021/08/03 10:35:43;;;;;;;57.97;2.50;;;17.00;1.00;;;;;;5095518;28;20488;-74
2021/08/03 10:38:16;;;;;;;57.93;2.50;;;17.10;1.00;;;;;;5095591;28;20501;-74
2021/08/03 10:41:06;;;;;;;57.93;2.50;;;17.30;1.00;;;;;;5095204;28;20522;-74
2021/08/03 10:43:54;;;;;;;58.10;2.30;;;17.50;1.00;;;;;;5095308;28;20450;-74
2021/08/03 10:46:40;;;;;;;58.07;2.50;;;17.70;1.00;;;;;;5095476;28;20446;-74
2021/08/03 10:49:08;;;;;;;58.07;2.40;;;17.60;1.00;;;;;;5095003;28;20454;-74
2021/08/03 10:51:48;;;;;;;58.27;2.50;;;17.50;1.00;;;;;;5094918;28;20485;-74
2021/08/03 10:54:19;;;;;;;57.87;2.40;;;17.60;1.00;;;;;;5095095;28;20449;-74
2021/08/03 10:57:23;;;;;;;58.00;2.60;;;17.60;1.00;;;;;;5095293;28;20488;-74
2021/08/03 11:00:00;;;;;;;57.67;2.40;;;17.80;1.00;;;;;;5094715;28;20442;-74
2021/08/03 11:02:48;;;;;;;57.87;2.40;;;18.00;1.00;;;;;;5094877;28;20448;-74
2021/08/03 11:05:29;;;;;;;58.00;2.53;;;18.80;1.00;;;;;;5095082;28;20522;-74
2021/08/03 11:07:56;;;;;;;57.20;2.37;;;19.20;1.00;;;;;;5094950;28;20447;-74
2021/08/03 11:10:33;;;;;;;57.77;2.40;;;19.20;1.00;;;;;;5094452;28;20496;-74
2021/08/03 11:13:03;;;;;;;57.97;2.23;;;19.10;1.00;;;;;;5094478;28;20533;-74
2021/08/03 11:15:41;;;;;;;57.47;2.50;;;19.30;1.00;;;;;;5095127;28;20458;-74
2021/08/03 11:18:14;;;;;;;57.87;2.40;;;20.20;1.00;;;;;;5094542;28;20443;-74
2021/08/03 11:21:12;;;;;;;57.93;2.50;;;21.40;1.00;;;;;;5094347;28;20539;-74
2021/08/03 11:23:58;;;;;;;57.83;2.30;;;22.50;1.00;;;;;;5094411;28;20534;-74
2021/08/03 11:26:26;;;;;;;57.87;2.40;;;22.70;1.00;;;;;;5094538;28;20450;-75
2021/08/03 11:28:58;;;;;;;57.77;2.20;;;22.50;1.00;;;;;;5094481;28;20459;-74
2021/08/03 11:31:39;;;;;;;57.93;2.40;;;22.40;1.00;;;;;;5093885;28;20489;-75
2021/08/03 11:34:08;;;;;;;57.87;2.30;;;23.00;1.00;;;;;;5094304;28;20454;-75
2021/08/03 11:36:36;;;;;;;57.80;2.47;;;23.10;1.00;;;;;;5094210;28;20553;-75
2021/08/03 11:39:19;;;;;;;57.97;2.00;;;22.90;1.00;;;;;;5094125;28;20536;-75
2021/08/03 11:41:46;;;;;;;57.77;2.10;;;22.40;1.00;;;;;;5093434;28;20549;-75
2021/08/03 11:44:15;;;;;;;58.10;2.13;;;21.70;1.00;;;;;;5094091;28;20443;-76
2021/08/03 11:46:42;;;;;;;57.80;2.40;;;21.30;1.00;;;;;;5094355;28;20802;-75
2021/08/03 11:49:11;;;;;;;57.77;2.23;;;21.10;1.00;;;;;;5094091;28;20442;-76
2021/08/03 11:51:44;;;;;;;57.87;2.40;;;21.10;1.00;;;;;;5093942;28;20513;-75
2021/08/03 11:54:13;;;;;;;59.90;3.33;;;21.10;1.00;;;;;;5094050;28;20515;-75
2021/08/03 11:56:40;;;;;;;57.53;2.30;;;21.10;1.00;;;;;;5093739;28;20490;-75
2021/08/03 11:59:06;;;;;;;57.77;2.37;;;21.00;1.00;;;;;;5093701;28;20998;-75
2021/08/03 12:01:49;;;;;;;57.67;2.13;;;21.00;1.00;;;;;;5093871;28;20556;-76
2021/08/03 12:04:20;;;;;;;57.53;2.33;;;21.00;1.00;;;;;;5093958;28;20536;-75
2021/08/03 12:06:48;;;;;;;57.73;2.30;;;20.80;1.00;;;;;;5093713;28;20446;-75
2021/08/03 12:09:17;;;;;;;58.27;2.80;;;20.70;1.00;;;;;;5093318;28;20555;-74
2021/08/03 12:11:44;;;;;;;57.17;2.30;;;20.90;1.00;;;;;;5093538;28;20573;-75
2021/08/03 12:14:12;;;;;;;58.00;2.20;;;20.90;1.00;;;;;;5093457;28;20508;-74
2021/08/03 12:16:42;;;;;;;57.83;2.20;;;20.80;1.00;;;;;;5093664;28;20449;-73
2021/08/03 12:19:29;;;;;;;57.97;2.27;;;20.60;1.00;;;;;;5093154;28;20724;-74
2021/08/03 12:21:56;;;;;;;57.80;2.20;;;20.60;1.00;;;;;;5093239;28;20470;-74
2021/08/03 12:24:23;;;;;;;57.83;2.27;;;20.60;1.00;;;;;;5093481;28;20446;-74
2021/08/03 12:27:08;;;;;;;57.50;2.40;;;20.80;1.00;;;;;;5093407;28;20444;-73
2021/08/03 12:29:35;;;;;;;57.50;2.30;;;21.10;1.00;;;;;;5092929;28;20525;-72
2021/08/03 12:32:03;;;;;;;57.70;2.20;;;21.10;1.00;;;;;;5093101;28;20490;-73
2021/08/03 12:34:37;;;;;;;58.40;2.37;;;21.20;1.00;;;;;;5092950;28;20450;-73
2021/08/03 12:37:06;;;;;;;57.97;2.53;;;21.20;1.00;;;;;;5093121;28;20485;-73
2021/08/03 12:39:40;;;;;;;57.77;2.30;;;21.20;1.00;;;;;;5092904;28;20549;-73
2021/08/03 12:42:18;;;;;;;57.87;2.30;;;21.10;1.00;;;;;;5093052;28;20454;-74
2021/08/03 12:44:44;;;;;;;57.70;2.30;;;20.90;1.00;;;;;;5092897;28;20446;-74
2021/08/03 12:47:14;;;;;;;57.57;2.20;;;20.60;1.00;;;;;;5093136;28;20538;-73
2021/08/03 12:49:44;;;;;;;57.23;2.10;;;20.40;1.00;;;;;;5092654;28;20457;-73
2021/08/03 12:52:13;;;;;;;57.87;2.50;;;20.30;1.00;;;;;;5092617;28;20484;-74
2021/08/03 12:54:41;;;;;;;57.90;2.50;;;20.30;1.00;;;;;;5091872;28;20865;-73